createdAt,value
2023-05-21T00:02:24.735Z,14.58
2023-05-21T00:05:52.491Z,14.55
2023-05-21T00:09:20.077Z,14.50
2023-05-21T00:12:47.665Z,14.43
2023-05-21T00:16:15.298Z,14.36
2023-05-21T00:19:42.874Z,14.34
2023-05-21T00:23:10.915Z,14.32
2023-05-21T00:26:38.502Z,14.29
2023-05-21T00:29:56.146Z,14.27
2023-05-21T00:33:16.743Z,14.24
2023-05-21T00:36:37.010Z,14.20
2023-05-21T00:40:04.725Z,14.15
2023-05-21T00:43:25.451Z,14.08
2023-05-21T00:46:53.130Z,14.02
2023-05-21T00:50:20.757Z,13.98
2023-05-21T00:53:49.788Z,13.93
2023-05-21T00:57:17.384Z,13.88
2023-05-21T01:00:45.162Z,13.84
2023-05-21T01:04:12.761Z,13.77
2023-05-21T01:07:45.480Z,13.71
2023-05-21T01:11:13.053Z,13.66
2023-05-21T01:14:40.704Z,13.59
2023-05-21T01:18:03.667Z,13.49
2023-05-21T01:21:32.423Z,13.38
2023-05-21T01:25:00.028Z,13.28
2023-05-21T01:28:27.699Z,13.19
2023-05-21T01:32:04.586Z,13.13
2023-05-21T01:35:41.489Z,13.08
2023-05-21T01:39:12.217Z,13.04
2023-05-21T01:42:39.832Z,12.97
2023-05-21T01:46:07.494Z,12.90
2023-05-21T01:49:35.173Z,12.83
2023-05-21T01:53:02.884Z,12.75
2023-05-21T01:56:30.480Z,12.69
2023-05-21T02:00:02.744Z,12.66
2023-05-21T02:03:22.850Z,12.59
2023-05-21T02:06:50.606Z,12.49
2023-05-21T02:10:18.218Z,12.41
2023-05-21T02:13:47.011Z,12.35
2023-05-21T02:17:16.626Z,12.31
2023-05-21T02:20:37.906Z,12.30
2023-05-21T02:23:59.471Z,12.30
2023-05-21T02:27:27.103Z,12.29
2023-05-21T02:30:37.496Z,12.24
2023-05-21T02:34:05.171Z,12.21
2023-05-21T02:37:33.951Z,12.18
2023-05-21T02:40:54.237Z,12.17
2023-05-21T02:44:21.028Z,12.17
2023-05-21T02:47:41.491Z,12.16
2023-05-21T02:51:09.323Z,12.15
2023-05-21T02:54:20.485Z,12.21
2023-05-21T02:57:41.135Z,12.30
2023-05-21T03:01:00.565Z,12.35
2023-05-21T03:04:28.264Z,12.39
2023-05-21T03:07:58.070Z,12.44
2023-05-21T03:11:25.781Z,12.52
2023-05-21T03:14:53.388Z,12.58
2023-05-21T03:18:21.018Z,12.66
2023-05-21T03:21:41.748Z,12.71
2023-05-21T03:25:09.443Z,12.71
2023-05-21T03:28:37.043Z,12.72
2023-05-21T03:31:57.636Z,12.74
2023-05-21T03:35:24.105Z,12.78
2023-05-21T03:38:51.762Z,12.81
2023-05-21T03:42:20.426Z,12.84
2023-05-21T03:45:47.251Z,12.89
2023-05-21T03:49:02.424Z,12.94
2023-05-21T03:52:23.097Z,12.98
2023-05-21T03:55:50.694Z,13.05
2023-05-21T03:59:11.654Z,13.15
2023-05-21T04:02:39.294Z,13.24
2023-05-21T04:06:08.130Z,13.32
2023-05-21T04:09:28.294Z,13.43
2023-05-21T04:13:01.080Z,13.55
2023-05-21T04:16:29.529Z,13.70
2023-05-21T04:19:57.264Z,13.88
2023-05-21T04:23:24.887Z,14.06
2023-05-21T04:26:52.524Z,14.25
2023-05-21T04:30:21.050Z,14.40
2023-05-21T04:33:48.728Z,14.65
2023-05-21T04:37:16.417Z,15.16
2023-05-21T04:40:44.191Z,16.36
2023-05-21T04:44:11.839Z,17.89
2023-05-21T04:47:39.526Z,19.03
2023-05-21T04:51:08.298Z,19.32
2023-05-21T04:54:34.913Z,18.84
2023-05-21T04:58:02.558Z,18.40
2023-05-21T05:01:30.194Z,18.08
2023-05-21T05:04:58.200Z,17.85
2023-05-21T05:08:25.874Z,17.68
2023-05-21T05:11:53.538Z,17.54
2023-05-21T05:15:21.167Z,17.55
2023-05-21T05:18:48.828Z,17.62
2023-05-21T05:22:12.366Z,17.70
2023-05-21T05:25:33.466Z,17.84
2023-05-21T05:28:51.015Z,17.99
2023-05-21T05:32:18.736Z,18.25
2023-05-21T05:35:47.136Z,18.50
2023-05-21T05:39:07.966Z,18.77
2023-05-21T05:42:25.469Z,19.03
2023-05-21T05:45:53.661Z,19.22
2023-05-21T05:49:21.256Z,19.32
2023-05-21T05:52:48.139Z,19.43
2023-05-21T05:56:06.851Z,19.57
2023-05-21T05:59:27.929Z,19.67
2023-05-21T06:02:48.568Z,19.76
2023-05-21T06:06:09.647Z,19.90
2023-05-21T06:09:35.922Z,20.01
2023-05-21T06:13:03.646Z,20.12
2023-05-21T06:16:20.088Z,20.17
2023-05-21T06:19:47.683Z,20.23
2023-05-21T06:23:15.796Z,20.34
2023-05-21T06:26:43.385Z,20.44
2023-05-21T06:30:11.075Z,20.60
2023-05-21T06:33:38.907Z,20.70
2023-05-21T06:37:06.831Z,20.79
2023-05-21T06:40:34.455Z,20.89
2023-05-21T06:44:02.161Z,20.97
2023-05-21T06:47:28.980Z,21.01
2023-05-21T07:33:51.897Z,21.52
2023-05-21T07:37:41.259Z,21.49
2023-05-21T07:41:29.373Z,21.49
2023-05-21T07:45:18.843Z,21.54
2023-05-21T07:49:06.923Z,21.57
2023-05-21T07:53:01.198Z,21.50
2023-05-21T07:56:49.241Z,21.49
2023-05-21T08:00:37.319Z,21.59
2023-05-21T08:04:28.140Z,21.71
2023-05-21T08:08:14.372Z,21.71
2023-05-21T08:12:03.070Z,21.81
2023-05-21T08:15:53.129Z,21.96
2023-05-21T08:19:42.387Z,22.07
2023-05-21T08:23:30.382Z,22.19
2023-05-21T08:27:18.538Z,22.29
2023-05-21T08:31:07.269Z,22.41
2023-05-21T08:34:57.746Z,22.41
2023-05-21T08:38:50.772Z,22.40
2023-05-21T08:42:41.620Z,22.51
2023-05-21T08:46:29.756Z,22.64
2023-05-21T08:50:18.131Z,22.78
2023-05-21T08:54:06.261Z,22.89
2023-05-21T08:57:54.288Z,22.94
2023-05-21T09:01:42.414Z,23.01
2023-05-21T09:05:12.248Z,23.01
2023-05-21T09:09:00.264Z,22.99
2023-05-21T09:12:53.204Z,23.02
2023-05-21T09:16:34.184Z,23.11
2023-05-21T09:20:20.930Z,23.18
2023-05-21T09:24:04.815Z,23.18
2023-05-21T09:27:53.196Z,23.11
2023-05-21T09:31:30.431Z,23.20
2023-05-21T09:35:18.493Z,23.23
2023-05-21T09:39:06.554Z,23.29
2023-05-21T09:42:54.538Z,23.37
2023-05-21T09:46:43.330Z,23.25
2023-05-21T09:50:20.248Z,23.29
2023-05-21T09:54:05.593Z,23.36
2023-05-21T09:57:20.804Z,23.44
2023-05-21T10:00:42.217Z,23.57
2023-05-21T10:04:29.079Z,23.67
2023-05-21T10:08:18.003Z,23.71
2023-05-21T10:12:06.229Z,23.75
2023-05-21T10:16:00.457Z,23.81
2023-05-21T10:19:40.515Z,23.83
2023-05-21T10:23:28.200Z,23.94
2023-05-21T10:27:09.014Z,24.02
2023-05-21T10:30:43.923Z,24.11
2023-05-21T10:34:31.909Z,24.21
2023-05-21T10:38:20.974Z,24.28
2023-05-21T10:42:09.225Z,24.45
2023-05-21T10:46:10.375Z,24.53
2023-05-21T10:50:07.371Z,24.73
2023-05-21T10:54:13.806Z,24.87
2023-05-21T10:58:23.215Z,25.04
2023-05-21T11:02:11.273Z,25.31
2023-05-21T11:05:57.740Z,25.46
2023-05-21T11:09:51.917Z,25.62
2023-05-21T11:13:45.904Z,25.79
2023-05-21T11:17:32.797Z,25.96
2023-05-21T11:21:20.901Z,26.14
2023-05-21T11:25:08.641Z,26.18
2023-05-21T11:28:31.843Z,26.27
2023-05-21T11:31:40.166Z,26.34
2023-05-21T11:35:24.873Z,26.42
2023-05-21T11:39:03.918Z,26.53
2023-05-21T11:43:10.083Z,26.74
2023-05-21T11:46:58.139Z,26.86
2023-05-21T11:50:46.383Z,27.01
2023-05-21T11:54:34.447Z,27.08
2023-05-21T11:58:21.191Z,27.13
2023-05-21T12:02:07.709Z,27.24
2023-05-21T12:05:56.232Z,27.50
2023-05-21T12:09:44.262Z,27.75
2023-05-21T12:13:32.412Z,27.83
2023-05-21T12:17:13.862Z,27.77
2023-05-21T12:21:01.876Z,27.62
2023-05-21T12:24:50.072Z,27.48
2023-05-21T12:28:38.058Z,27.17
2023-05-21T12:32:28.880Z,26.91
2023-05-21T12:36:20.104Z,26.64
2023-05-21T12:40:08.079Z,26.48
2023-05-21T12:43:49.237Z,26.30
2023-05-21T12:47:39.196Z,26.13
2023-05-21T12:51:27.587Z,25.95
2023-05-21T12:55:17.097Z,25.82
2023-05-21T12:59:01.423Z,25.76
2023-05-21T13:02:49.582Z,25.95
2023-05-21T13:06:39.371Z,26.42
2023-05-21T13:10:16.519Z,26.92
2023-05-21T13:13:47.769Z,27.17
2023-05-21T13:17:37.790Z,27.40
2023-05-21T13:21:19.007Z,27.54
2023-05-21T13:25:22.465Z,27.72
2023-05-21T13:29:17.400Z,27.75
2023-05-21T13:33:05.589Z,27.60
2023-05-21T13:36:53.656Z,27.28
2023-05-21T13:40:41.964Z,26.74
2023-05-21T13:44:30.877Z,26.15
2023-05-21T13:48:21.107Z,25.61
2023-05-21T13:52:09.357Z,25.07
2023-05-21T13:55:57.352Z,24.46
2023-05-21T13:59:45.362Z,24.04
2023-05-21T14:03:33.426Z,23.77
2023-05-21T14:07:21.591Z,23.66
2023-05-21T14:11:09.917Z,23.67
2023-05-21T14:14:56.837Z,23.78
2023-05-21T14:18:44.898Z,24.29
2023-05-21T14:22:33.929Z,25.18
2023-05-21T14:26:22.860Z,25.97
2023-05-21T14:29:56.149Z,26.54
2023-05-21T14:33:44.181Z,26.80
2023-05-21T14:37:33.671Z,26.67
2023-05-21T14:41:21.734Z,26.93
2023-05-21T14:45:18.698Z,27.50
2023-05-21T14:49:08.888Z,28.16
2023-05-21T14:52:57.699Z,28.65
2023-05-21T14:56:47.017Z,28.92
2023-05-21T15:00:24.207Z,29.14
2023-05-21T15:04:03.978Z,29.26
2023-05-21T15:07:51.340Z,29.24
2023-05-21T15:11:38.309Z,29.11
2023-05-21T15:14:48.632Z,29.14
2023-05-21T15:18:14.176Z,29.14
2023-05-21T15:22:02.276Z,28.65
2023-05-21T15:25:50.367Z,27.65
2023-05-21T15:29:39.106Z,26.52
2023-05-21T15:33:27.160Z,25.55
2023-05-21T15:37:15.783Z,24.83
2023-05-21T15:41:03.990Z,24.21
2023-05-21T15:44:52.682Z,23.71
2023-05-21T15:48:32.670Z,23.34
2023-05-21T15:52:15.753Z,23.05
2023-05-21T15:55:20.995Z,22.74
2023-05-21T15:58:02.605Z,22.47
2023-05-21T16:01:42.085Z,22.30
2023-05-21T16:05:17.917Z,22.10
2023-05-21T16:08:17.273Z,21.90
2023-05-21T16:11:24.370Z,21.76
2023-05-21T16:14:54.923Z,21.65
2023-05-21T16:18:16.154Z,21.53
2023-05-21T16:22:03.310Z,21.40
2023-05-21T16:25:31.829Z,21.29
2023-05-21T16:29:12.723Z,21.21
2023-05-21T16:32:54.803Z,21.12
2023-05-21T16:36:48.924Z,21.06
2023-05-21T16:40:37.071Z,20.97
2023-05-21T16:44:18.119Z,20.89
2023-05-21T16:47:57.995Z,20.80
2023-05-21T16:51:31.828Z,20.73
2023-05-21T16:55:19.721Z,20.62
2023-05-21T16:59:02.026Z,20.51
2023-05-21T17:02:43.866Z,20.43
2023-05-21T17:06:31.044Z,20.34
2023-05-21T17:10:19.652Z,20.25
2023-05-21T17:14:09.915Z,20.19
2023-05-21T17:17:51.948Z,20.10
2023-05-21T17:21:00.391Z,20.01
2023-05-21T17:24:46.432Z,19.91
2023-05-21T17:28:34.515Z,19.79
2023-05-21T17:32:07.979Z,19.66
2023-05-21T17:35:48.840Z,19.55
2023-05-21T17:38:31.888Z,19.45
2023-05-21T17:41:38.318Z,19.38
2023-05-21T17:44:35.818Z,19.31
2023-05-21T17:47:25.924Z,19.22
2023-05-21T17:50:54.755Z,19.14
2023-05-21T17:54:21.700Z,19.04
2023-05-21T17:57:51.858Z,18.97
2023-05-21T18:01:12.902Z,18.88
2023-05-21T18:04:40.807Z,18.80
2023-05-21T18:08:00.690Z,18.71
2023-05-21T18:11:24.677Z,18.62
2023-05-21T18:14:49.500Z,18.54
2023-05-21T18:18:19.878Z,18.47
2023-05-21T18:21:58.191Z,18.39
2023-05-21T18:25:00.142Z,18.32
2023-05-21T18:28:49.566Z,18.24
2023-05-21T18:32:26.860Z,18.16
2023-05-21T18:36:01.062Z,18.06
2023-05-21T18:39:50.150Z,17.97
2023-05-21T18:43:27.023Z,17.87
2023-05-21T18:47:15.078Z,17.79
2023-05-21T18:50:52.313Z,17.71
2023-05-21T18:54:10.759Z,17.64
2023-05-21T18:57:58.892Z,17.55
2023-05-21T19:01:46.996Z,17.49
2023-05-21T19:05:40.961Z,17.42
2023-05-21T19:09:29.961Z,17.38
2023-05-21T19:13:16.567Z,17.34
2023-05-21T19:17:04.606Z,17.27
2023-05-21T19:20:52.674Z,17.23
2023-05-21T19:24:39.588Z,17.18
2023-05-21T19:28:26.231Z,17.14
2023-05-21T19:32:14.651Z,17.09
2023-05-21T19:36:02.822Z,17.02
2023-05-21T19:39:49.690Z,16.94
2023-05-21T19:43:36.444Z,16.86
2023-05-21T19:46:46.904Z,16.77
2023-05-21T19:49:20.085Z,16.70
2023-05-21T19:52:16.450Z,16.65
2023-05-21T19:55:46.932Z,16.56
2023-05-21T19:58:41.056Z,16.46
2023-05-21T20:01:39.540Z,16.38
2023-05-21T20:04:59.252Z,16.28
2023-05-21T20:08:33.647Z,16.19
2023-05-21T20:11:16.494Z,16.10
2023-05-21T20:14:50.054Z,16.01
2023-05-21T20:18:26.826Z,15.92
2023-05-21T20:21:20.622Z,15.83
2023-05-21T20:24:11.565Z,15.76
2023-05-21T20:27:24.635Z,15.70
2023-05-21T20:30:40.241Z,15.63
2023-05-21T20:33:25.998Z,15.55
2023-05-21T20:35:53.287Z,15.49
2023-05-21T20:39:21.067Z,15.45
2023-05-21T20:41:50.872Z,15.39
2023-05-21T20:44:29.382Z,15.35
2023-05-21T20:46:56.850Z,15.30
2023-05-21T20:49:25.078Z,15.26
2023-05-21T20:52:08.740Z,15.22
2023-05-21T20:54:59.812Z,15.17
2023-05-21T20:57:32.674Z,15.13
2023-05-21T21:00:05.857Z,15.09
2023-05-21T21:03:19.565Z,15.06
2023-05-21T21:05:57.727Z,15.00
2023-05-21T21:08:48.775Z,14.94
2023-05-21T21:12:24.691Z,14.89
2023-05-21T21:15:25.130Z,14.82
2023-05-21T21:18:11.837Z,14.78
2023-05-21T21:20:59.210Z,14.75
2023-05-21T21:23:51.322Z,14.73
2023-05-21T21:27:20.678Z,14.68
2023-05-21T21:30:33.491Z,14.59
2023-05-21T21:33:28.533Z,14.50
2023-05-21T21:36:10.130Z,14.43
2023-05-21T21:38:37.699Z,14.38
2023-05-21T21:41:08.344Z,14.32
2023-05-21T21:43:59.121Z,14.26
2023-05-21T21:47:00.283Z,14.19
2023-05-21T21:50:34.658Z,14.15
2023-05-21T21:54:13.380Z,14.14
2023-05-21T21:57:16.777Z,14.15
2023-05-21T22:00:57.749Z,14.16
2023-05-21T22:04:26.004Z,14.15
2023-05-21T22:07:53.644Z,14.14
2023-05-21T22:11:33.191Z,14.11
2023-05-21T22:15:21.213Z,14.05
2023-05-21T22:19:03.715Z,13.97
2023-05-21T22:22:45.020Z,13.85
2023-05-21T22:26:24.831Z,13.74
2023-05-21T22:29:43.923Z,13.68
2023-05-21T22:33:31.881Z,13.65
2023-05-21T22:37:12.811Z,13.60
2023-05-21T22:40:36.804Z,13.54
2023-05-21T22:43:57.473Z,13.50
2023-05-21T22:47:45.530Z,13.45
2023-05-21T22:50:54.902Z,13.43
2023-05-21T22:58:40.009Z,13.36
2023-05-21T23:02:20.943Z,13.34
2023-05-21T23:05:59.042Z,13.30
2023-05-21T23:09:37.139Z,13.26
2023-05-21T23:13:17.819Z,13.19
2023-05-21T23:17:08.120Z,13.13
2023-05-21T23:20:53.743Z,13.10
2023-05-21T23:24:41.740Z,13.08
2023-05-21T23:28:22.725Z,13.07
2023-05-21T23:32:10.794Z,13.03
2023-05-21T23:35:44.578Z,12.99
2023-05-21T23:38:49.078Z,12.94
2023-05-21T23:41:35.257Z,12.91
2023-05-21T23:44:21.142Z,12.87
2023-05-21T23:46:58.089Z,12.82
2023-05-21T23:49:53.710Z,12.78
2023-05-21T23:52:43.009Z,12.72
2023-05-21T23:55:42.905Z,12.67
2023-05-21T23:58:29.248Z,12.61
